• Join FlightAware (Why Join?)
  • Login
  • US Flag 
04:02AM EDT


 

Airport Tracker/Info


-or-


 

Live Flight TrackerFlight Track Log ✈ EGF2829 ✈ 17-May-2013 ✈ KMGM - KDFW

Flight Track Log - Related Links

Times and Time Zones

All times are in EDT time to prevent confusion due to time zone crossing. See the EGF2829 flight status page for this flight to view local times or setup timezone preferences in your user account.

Time Position Orientation Groundspeed Altitude Reporting Facility
EDT Latitude Longitude Course Direction KTS MPH feet Rate Location/Type
02:57PM 32.3475 -86.3278 275° West 210 242 5,800  Level Atlanta Center
02:58PM 32.3002 -86.7181 278° West  Level FlightAware Approximate
02:58PM 32.3586 -86.3919 282° West 158 182 8,600  Level Atlanta Center
02:59PM 32.3125 -86.8288 278° West  Level FlightAware Approximate
02:59PM 32.3572 -86.4756 269° West 183 211 9,800  Level Atlanta Center
03:00PM 32.3167 -86.9401 270° West  Level FlightAware Approximate
03:00PM 32.3592 -86.5789 271° West 257 296 10,400  Level Atlanta Center
03:01PM 32.3167 -87.0518 270° West  Level FlightAware Approximate
03:01PM 32.3608 -86.6969 271° West 319 367 11,800  Level Atlanta Center
03:02PM 32.3187 -87.1633 275° West  Level FlightAware Approximate
03:02PM 32.3625 -86.8078 271° West 342 394 13,400  Level Atlanta Center
03:03PM 32.3261 -87.2746 275° West  Level FlightAware Approximate
03:03PM 32.3661 -86.9258 272° West 355 409 14,900  Level Atlanta Center
03:04PM 32.3675 -87.0414 271° West 355 409 16,400 1,440 Climbing Atlanta Center
03:05PM 32.3689 -87.1544 271° West 355 409 17,800 1,380 Climbing Atlanta Center
03:06PM 32.3681 -87.2703 270° West 355 409 19,200 1,500 Climbing Atlanta Center
03:07PM 32.3731 -87.3908 273° West 355 409 20,800 1,500 Climbing Atlanta Center
03:08PM 32.3764 -87.5042 272° West 361 415 22,300 1,440 Climbing Atlanta Center
03:09PM 32.3772 -87.6197 271° West 361 415 23,700 1,440 Climbing Atlanta Center
03:12PM 32.3783 -87.9000 270° West 358 412 27,300 3,600 Climbing Memphis Center
03:13PM 32.3786 -88.0206 270° West 364 419 36,000 1,260 Climbing Memphis Center
03:14PM 32.3786 -88.1386 270° West 364 419 29,900 -2,580 Descending Memphis Center
03:15PM 32.3786 -88.2639 270° West 369 425 30,900 960 Climbing Memphis Center
03:16PM 32.3767 -88.3994 269° West 390 449 31,900 900 Climbing Memphis Center
03:17PM 32.3789 -88.5344 271° West 405 466 32,800 1,020 Climbing Memphis Center
03:18PM 32.3808 -88.6822 271° West 405 466 34,000 1,140 Climbing Memphis Center
03:19PM 32.3806 -88.8175 270° West 410 472 35,100 960 Climbing Memphis Center
03:20PM 32.3864 -88.9575 273° West 415 478 36,000 420 Climbing Memphis Center
03:21PM 32.3961 -89.0928 275° West 422 486 36,000  Level Memphis Center
03:22PM 32.4017 -89.2281 273° West 422 486 36,000  Level Memphis Center
03:23PM 32.4089 -89.3608 274° West 417 480 36,000  Level Memphis Center
03:24PM 32.4142 -89.4961 273° West 417 480 36,000  Level Memphis Center
03:25PM 32.4214 -89.6289 274° West 417 480 36,000  Level Memphis Center
03:26PM 32.4283 -89.7617 274° West 412 474 36,000  Level Memphis Center
03:27PM 32.4331 -89.8969 272° West 412 474 36,000  Level Memphis Center
03:28PM 32.4397 -90.0250 274° West 402 463 36,000  Level Memphis Center
03:29PM 32.4464 -90.1556 273° West 402 463 36,000  Level Memphis Center
03:30PM 32.4506 -90.2833 272° West 402 463 36,000  Level Memphis Center
03:31PM 32.4569 -90.4114 273° West 402 463 36,000  Level Memphis Center
03:32PM 32.4631 -90.5394 273° West 396 456 36,000  Level Memphis Center
03:33PM 32.4692 -90.6650 273° West 396 456 36,000  Level Memphis Center
03:34PM 32.4728 -90.7931 272° West 390 449 36,000  Level Memphis Center
03:35PM 32.4767 -90.9189 272° West 390 449 36,000  Level Memphis Center
03:36PM 32.4822 -91.0444 273° West 390 449 36,000  Level Memphis Center
03:38PM 32.4956 -91.3131 273° West 384 442 36,000  Level Fort Worth Center
03:39PM 32.4992 -91.4358 272° West 384 442 36,000  Level Fort Worth Center
03:40PM 32.5008 -91.5589 271° West 384 442 36,000  Level Fort Worth Center
03:41PM 32.5067 -91.6842 273° West 384 442 36,000  Level Fort Worth Center
03:42PM 32.5103 -91.8094 272° West 384 442 36,000  Level Fort Worth Center
03:43PM 32.5156 -91.9322 273° West 384 442 36,000  Level Fort Worth Center
03:44PM 32.5189 -92.0575 272° West 384 442 36,000  Level Fort Worth Center
03:45PM 32.5097 -92.1839 265° West 384 442 36,000  Level Fort Worth Center
03:46PM 32.5003 -92.3075 265° West 389 448 36,000  Level Fort Worth Center
03:47PM 32.4906 -92.4311 265° West 389 448 36,000  Level Fort Worth Center
03:48PM 32.4811 -92.5647 265° West 382 440 36,000  Level Fort Worth Center
03:49PM 32.4733 -92.6906 266° West 382 440 36,000  Level Fort Worth Center
03:50PM 32.4633 -92.8167 265° West 388 447 36,000  Level Fort Worth Center
03:51PM 32.4533 -92.9428 265° West 388 447 36,000  Level Fort Worth Center
03:52PM 32.4453 -93.0686 266° West 388 447 36,000  Level Fort Worth Center
03:53PM 32.4369 -93.1922 265° West 388 447 36,000  Level Fort Worth Center
03:54PM 32.4264 -93.3156 264° West 388 447 36,000  Level Fort Worth Center
03:55PM 32.4200 -93.4414 267° West 388 447 36,000  Level Fort Worth Center
03:56PM 32.4072 -93.5700 263° West 388 447 36,000  Level Fort Worth Center
03:57PM 32.3986 -93.6933 265° West 388 447 36,000  Level Fort Worth Center
03:58PM 32.3892 -93.8044 264° West 383 441 36,000  Level Fort Worth Center
03:59PM 32.3781 -93.9303 264° West 389 448 36,000  Level Fort Worth Center
04:00PM 32.3689 -94.0536 265° West 389 448 36,000  Level Fort Worth Center
04:01PM 32.3619 -94.1792 266° West 389 448 36,000  Level Fort Worth Center
04:02PM 32.3503 -94.3050 264° West 389 448 36,000  Level Fort Worth Center
04:03PM 32.3389 -94.4308 264° West 389 448 36,000  Level Fort Worth Center
04:04PM 32.3269 -94.5542 263° West 389 448 36,000  Level Fort Worth Center
04:05PM 32.3194 -94.6797 266° West 389 448 36,000 -360 Level Fort Worth Center
04:06PM 32.3075 -94.8056 264° West 389 448 35,300 -900 Descending Fort Worth Center
04:07PM 32.2975 -94.9361 265° West 389 448 34,200 -1,080 Descending Fort Worth Center
04:08PM 32.2897 -95.0664 266° West 395 455 33,200 -1,020 Descending Fort Worth Center
04:09PM 32.2794 -95.1969 265° West 400 460 32,200 -1,080 Descending Fort Worth Center
04:10PM 32.2672 -95.3275 264° West 405 466 31,100 -1,080 Descending Fort Worth Center
04:11PM 32.2547 -95.4606 264° West 410 472 30,100 -1,020 Descending Fort Worth Center
04:12PM 32.2442 -95.5981 265° West 415 478 29,100 -1,380 Descending Fort Worth Center
04:13PM 32.2336 -95.7333 265° West 421 484 27,400 -2,160 Descending Fort Worth Center
04:14PM 32.2417 -95.8733 274° West 426 490 24,800 -2,820 Descending Fort Worth Center
04:15PM 32.2703 -96.0056 284° West 416 479 21,800 -2,580 Descending Fort Worth Center
04:16PM 32.3028 -96.1328 287° West 416 479 19,700 -2,100 Descending Fort Worth Center
04:17PM 32.3333 -96.2528 287° West 401 461 17,600 -2,100 Descending Fort Worth Center
04:18PM 32.3614 -96.3756 285° West 389 448 15,600 -1,800 Descending Fort Worth Center
04:19PM 32.4039 -96.4758 297° West 370 426 14,000 -1,560 Descending Fort Worth Center
04:20PM 32.4692 -96.5539 315° West 342 394 12,500 -1,500 Descending Fort Worth Center
04:21PM 32.5325 -96.6297 315° West 336 387 11,100 -780 Descending Fort Worth Center
04:22PM 32.5892 -96.6958 316° Northwest 309 356 11,000 -60 Descending Fort Worth Center
04:23PM 32.6458 -96.7669 313° West 299 344 11,000  Level Fort Worth Center
04:24PM 32.6833 -96.8000 323° Northwest 298 343 11,000  Level Dallas / Fort Worth TRACON
04:25PM 32.7333 -96.8667 312° West 276 318 11,000  Level Dallas / Fort Worth TRACON
04:26PM 32.7833 -96.9333 312° West 240 276 11,000 -360 Level Dallas / Fort Worth TRACON
04:27PM 32.8333 -96.9833 320° Northwest 247 284 10,400 -1,140 Descending Dallas / Fort Worth TRACON
04:28PM 32.8833 -97.0333 320° Northwest 238 274 8,800 -1,740 Descending Dallas / Fort Worth TRACON
04:28PM 32.9167 -97.0833 308° West 237 273 7,100 -1,560 Descending Dallas / Fort Worth TRACON
04:29PM 32.9833 -97.1167 337° Northwest 245 282 5,900 -1,620 Descending Dallas / Fort Worth TRACON
04:30PM 33.0500 -97.1167 360° North 237 273 4,000 -1,440 Descending Dallas / Fort Worth TRACON
04:31PM 33.1167 -97.1333 348° North 239 275 3,000 -540 Descending Dallas / Fort Worth TRACON
04:32PM 33.1167 -97.0833 90° East 178 205 3,000  Level Dallas / Fort Worth TRACON
04:33PM 33.0833 -97.0500 140° Southeast 155 178 3,100  Climbing Dallas / Fort Worth TRACON
04:34PM 33.0333 -97.0500 180° South 155 178 3,100  Level Dallas / Fort Worth TRACON